sensor_id;sensor_type;location;lat;lon;timestamp;P1;durP1;ratioP1;P2;durP2;ratioP2
12745;SDS011;6437;53.686;10.030;2023-06-04T00:01:07;3.25;;;0.95;;
12745;SDS011;6437;53.686;10.030;2023-06-04T00:03:09;2.42;;;1.38;;
12745;SDS011;6437;53.686;10.030;2023-06-04T00:05:11;4.50;;;1.23;;
12745;SDS011;6437;53.686;10.030;2023-06-04T00:07:15;4.82;;;1.13;;
12745;SDS011;6437;53.686;10.030;2023-06-04T00:09:17;3.60;;;1.45;;
12745;SDS011;6437;53.686;10.030;2023-06-04T00:11:19;4.88;;;1.45;;
12745;SDS011;6437;53.686;10.030;2023-06-04T00:13:21;1.92;;;0.60;;
12745;SDS011;6437;53.686;10.030;2023-06-04T00:17:26;2.33;;;0.82;;
12745;SDS011;6437;53.686;10.030;2023-06-04T00:19:27;1.30;;;0.70;;
12745;SDS011;6437;53.686;10.030;2023-06-04T00:21:29;4.57;;;1.17;;
12745;SDS011;6437;53.686;10.030;2023-06-04T00:23:33;9.25;;;1.00;;
12745;SDS011;6437;53.686;10.030;2023-06-04T00:25:35;2.67;;;0.93;;
12745;SDS011;6437;53.686;10.030;2023-06-04T00:27:37;2.42;;;0.73;;
12745;SDS011;6437;53.686;10.030;2023-06-04T00:29:39;3.13;;;1.27;;
12745;SDS011;6437;53.686;10.030;2023-06-04T00:31:41;2.95;;;0.88;;
12745;SDS011;6437;53.686;10.030;2023-06-04T00:33:44;5.82;;;1.00;;
12745;SDS011;6437;53.686;10.030;2023-06-04T00:35:47;7.60;;;1.20;;
12745;SDS011;6437;53.686;10.030;2023-06-04T00:37:50;1.95;;;0.70;;
12745;SDS011;6437;53.686;10.030;2023-06-04T00:39:53;4.05;;;0.80;;
12745;SDS011;6437;53.686;10.030;2023-06-04T00:41:56;2.63;;;0.93;;
12745;SDS011;6437;53.686;10.030;2023-06-04T00:43:58;5.13;;;0.80;;
12745;SDS011;6437;53.686;10.030;2023-06-04T00:46:02;3.97;;;1.05;;
12745;SDS011;6437;53.686;10.030;2023-06-04T00:48:04;9.57;;;0.90;;
12745;SDS011;6437;53.686;10.030;2023-06-04T00:50:07;2.25;;;1.17;;
12745;SDS011;6437;53.686;10.030;2023-06-04T00:52:11;4.57;;;0.80;;
12745;SDS011;6437;53.686;10.030;2023-06-04T00:54:15;5.00;;;0.60;;
12745;SDS011;6437;53.686;10.030;2023-06-04T00:56:19;3.45;;;0.88;;
12745;SDS011;6437;53.686;10.030;2023-06-04T00:58:21;3.40;;;0.57;;
12745;SDS011;6437;53.686;10.030;2023-06-04T01:00:24;9.15;;;0.70;;
12745;SDS011;6437;53.686;10.030;2023-06-04T01:02:26;4.95;;;1.00;;
12745;SDS011;6437;53.686;10.030;2023-06-04T01:04:31;5.80;;;1.10;;
12745;SDS011;6437;53.686;10.030;2023-06-04T01:06:36;2.92;;;0.60;;
12745;SDS011;6437;53.686;10.030;2023-06-04T01:08:39;2.05;;;0.82;;
12745;SDS011;6437;53.686;10.030;2023-06-04T01:10:50;10.00;;;0.90;;
12745;SDS011;6437;53.686;10.030;2023-06-04T01:12:53;3.38;;;1.02;;
12745;SDS011;6437;53.686;10.030;2023-06-04T01:14:56;5.93;;;1.50;;
12745;SDS011;6437;53.686;10.030;2023-06-04T01:16:59;4.32;;;1.10;;
12745;SDS011;6437;53.686;10.030;2023-06-04T01:19:05;7.32;;;1.20;;
12745;SDS011;6437;53.686;10.030;2023-06-04T01:21:21;1.95;;;0.70;;
12745;SDS011;6437;53.686;10.030;2023-06-04T01:23:28;4.45;;;0.93;;
12745;SDS011;6437;53.686;10.030;2023-06-04T01:25:36;2.73;;;0.70;;
12745;SDS011;6437;53.686;10.030;2023-06-04T01:27:39;3.33;;;0.73;;
12745;SDS011;6437;53.686;10.030;2023-06-04T01:29:43;2.80;;;0.70;;
12745;SDS011;6437;53.686;10.030;2023-06-04T01:31:51;5.38;;;0.93;;
12745;SDS011;6437;53.686;10.030;2023-06-04T01:33:54;1.65;;;0.70;;
12745;SDS011;6437;53.686;10.030;2023-06-04T01:35:57;5.15;;;0.75;;
12745;SDS011;6437;53.686;10.030;2023-06-04T01:38:01;1.20;;;0.60;;
12745;SDS011;6437;53.686;10.030;2023-06-04T01:40:03;5.43;;;0.68;;
12745;SDS011;6437;53.686;10.030;2023-06-04T01:42:07;5.97;;;0.95;;
12745;SDS011;6437;53.686;10.030;2023-06-04T01:44:09;6.68;;;1.15;;
12745;SDS011;6437;53.686;10.030;2023-06-04T01:46:13;2.67;;;0.60;;
12745;SDS011;6437;53.686;10.030;2023-06-04T01:48:14;4.75;;;1.58;;
12745;SDS011;6437;53.686;10.030;2023-06-04T01:50:16;2.47;;;0.77;;
12745;SDS011;6437;53.686;10.030;2023-06-04T01:52:19;4.82;;;1.15;;
12745;SDS011;6437;53.686;10.030;2023-06-04T01:54:22;5.32;;;1.02;;
12745;SDS011;6437;53.686;10.030;2023-06-04T01:56:24;3.55;;;1.02;;
12745;SDS011;6437;53.686;10.030;2023-06-04T01:58:26;5.30;;;1.50;;
12745;SDS011;6437;53.686;10.030;2023-06-04T02:00:29;4.13;;;0.82;;
12745;SDS011;6437;53.686;10.030;2023-06-04T02:02:32;1.70;;;0.82;;
12745;SDS011;6437;53.686;10.030;2023-06-04T02:04:35;3.72;;;0.65;;
12745;SDS011;6437;53.686;10.030;2023-06-04T02:06:37;3.80;;;1.55;;
12745;SDS011;6437;53.686;10.030;2023-06-04T02:08:39;2.85;;;0.90;;
12745;SDS011;6437;53.686;10.030;2023-06-04T02:10:42;1.02;;;0.57;;
12745;SDS011;6437;53.686;10.030;2023-06-04T02:12:52;2.78;;;1.15;;
12745;SDS011;6437;53.686;10.030;2023-06-04T02:14:55;8.52;;;1.38;;
12745;SDS011;6437;53.686;10.030;2023-06-04T02:16:57;9.88;;;1.17;;
12745;SDS011;6437;53.686;10.030;2023-06-04T02:19:00;9.32;;;0.88;;
12745;SDS011;6437;53.686;10.030;2023-06-04T02:21:03;3.70;;;0.77;;
12745;SDS011;6437;53.686;10.030;2023-06-04T02:23:05;13.68;;;1.02;;
12745;SDS011;6437;53.686;10.030;2023-06-04T02:25:07;3.50;;;0.70;;
12745;SDS011;6437;53.686;10.030;2023-06-04T02:27:10;4.85;;;0.88;;
12745;SDS011;6437;53.686;10.030;2023-06-04T02:29:14;2.80;;;0.50;;
12745;SDS011;6437;53.686;10.030;2023-06-04T02:33:18;2.95;;;0.65;;
12745;SDS011;6437;53.686;10.030;2023-06-04T02:35:22;2.38;;;0.77;;
12745;SDS011;6437;53.686;10.030;2023-06-04T02:37:24;3.25;;;1.40;;
12745;SDS011;6437;53.686;10.030;2023-06-04T02:39:26;1.77;;;0.70;;
12745;SDS011;6437;53.686;10.030;2023-06-04T02:41:28;2.45;;;0.60;;
12745;SDS011;6437;53.686;10.030;2023-06-04T02:43:30;2.35;;;0.68;;
12745;SDS011;6437;53.686;10.030;2023-06-04T02:45:32;4.00;;;0.65;;
12745;SDS011;6437;53.686;10.030;2023-06-04T02:47:34;6.60;;;0.93;;
12745;SDS011;6437;53.686;10.030;2023-06-04T02:49:35;8.52;;;0.63;;
12745;SDS011;6437;53.686;10.030;2023-06-04T02:51:39;6.05;;;1.23;;
12745;SDS011;6437;53.686;10.030;2023-06-04T02:53:40;2.72;;;0.65;;
12745;SDS011;6437;53.686;10.030;2023-06-04T02:55:42;4.70;;;0.70;;
12745;SDS011;6437;53.686;10.030;2023-06-04T02:57:44;10.07;;;1.10;;
12745;SDS011;6437;53.686;10.030;2023-06-04T02:59:50;1.90;;;1.08;;
12745;SDS011;6437;53.686;10.030;2023-06-04T03:01:52;2.22;;;0.75;;
12745;SDS011;6437;53.686;10.030;2023-06-04T03:03:54;9.45;;;0.70;;
12745;SDS011;6437;53.686;10.030;2023-06-04T03:05:57;2.67;;;0.80;;
12745;SDS011;6437;53.686;10.030;2023-06-04T03:08:01;3.53;;;0.82;;
12745;SDS011;6437;53.686;10.030;2023-06-04T03:10:04;4.88;;;1.10;;
12745;SDS011;6437;53.686;10.030;2023-06-04T03:12:07;5.45;;;1.33;;
12745;SDS011;6437;53.686;10.030;2023-06-04T03:14:09;7.05;;;0.88;;
12745;SDS011;6437;53.686;10.030;2023-06-04T03:16:11;4.25;;;0.60;;
12745;SDS011;6437;53.686;10.030;2023-06-04T03:20:15;2.47;;;0.63;;
12745;SDS011;6437;53.686;10.030;2023-06-04T03:22:17;4.13;;;0.95;;
12745;SDS011;6437;53.686;10.030;2023-06-04T03:24:20;4.03;;;0.98;;
12745;SDS011;6437;53.686;10.030;2023-06-04T03:26:22;11.02;;;1.10;;
12745;SDS011;6437;53.686;10.030;2023-06-04T03:28:24;2.28;;;0.85;;
12745;SDS011;6437;53.686;10.030;2023-06-04T03:30:26;1.35;;;0.63;;
12745;SDS011;6437;53.686;10.030;2023-06-04T03:32:28;2.60;;;0.68;;
12745;SDS011;6437;53.686;10.030;2023-06-04T03:36:32;2.57;;;0.50;;
12745;SDS011;6437;53.686;10.030;2023-06-04T03:38:38;2.40;;;0.85;;
12745;SDS011;6437;53.686;10.030;2023-06-04T03:40:41;4.70;;;1.42;;
12745;SDS011;6437;53.686;10.030;2023-06-04T03:42:43;4.10;;;1.08;;
12745;SDS011;6437;53.686;10.030;2023-06-04T03:44:46;2.33;;;0.77;;
12745;SDS011;6437;53.686;10.030;2023-06-04T03:46:50;3.08;;;0.70;;
12745;SDS011;6437;53.686;10.030;2023-06-04T03:48:51;1.42;;;0.65;;
12745;SDS011;6437;53.686;10.030;2023-06-04T03:50:53;9.55;;;0.70;;
12745;SDS011;6437;53.686;10.030;2023-06-04T03:52:55;5.60;;;1.17;;
12745;SDS011;6437;53.686;10.030;2023-06-04T03:54:57;3.28;;;0.80;;
12745;SDS011;6437;53.686;10.030;2023-06-04T03:57:02;1.42;;;0.60;;
12745;SDS011;6437;53.686;10.030;2023-06-04T03:59:04;1.88;;;0.60;;
12745;SDS011;6437;53.686;10.030;2023-06-04T04:01:07;2.33;;;0.60;;
12745;SDS011;6437;53.686;10.030;2023-06-04T04:03:10;5.18;;;0.80;;
12745;SDS011;6437;53.686;10.030;2023-06-04T04:05:12;15.25;;;0.70;;
12745;SDS011;6437;53.686;10.030;2023-06-04T04:07:15;10.50;;;1.63;;
12745;SDS011;6437;53.686;10.030;2023-06-04T04:11:18;5.10;;;0.65;;
12745;SDS011;6437;53.686;10.030;2023-06-04T04:13:23;3.25;;;1.00;;
12745;SDS011;6437;53.686;10.030;2023-06-04T04:15:25;2.70;;;0.70;;
12745;SDS011;6437;53.686;10.030;2023-06-04T04:17:27;2.40;;;0.85;;
12745;SDS011;6437;53.686;10.030;2023-06-04T04:19:29;3.53;;;0.68;;
12745;SDS011;6437;53.686;10.030;2023-06-04T04:21:31;5.68;;;1.05;;
12745;SDS011;6437;53.686;10.030;2023-06-04T04:23:33;5.93;;;0.77;;
12745;SDS011;6437;53.686;10.030;2023-06-04T04:25:35;6.00;;;0.57;;
12745;SDS011;6437;53.686;10.030;2023-06-04T04:27:37;3.75;;;0.70;;
12745;SDS011;6437;53.686;10.030;2023-06-04T04:29:42;2.47;;;0.75;;
12745;SDS011;6437;53.686;10.030;2023-06-04T04:31:44;4.57;;;1.05;;
12745;SDS011;6437;53.686;10.030;2023-06-04T04:33:48;6.88;;;1.45;;
12745;SDS011;6437;53.686;10.030;2023-06-04T04:35:51;3.83;;;1.25;;
12745;SDS011;6437;53.686;10.030;2023-06-04T04:37:53;6.85;;;1.50;;
12745;SDS011;6437;53.686;10.030;2023-06-04T04:39:55;5.13;;;1.05;;
12745;SDS011;6437;53.686;10.030;2023-06-04T04:41:57;4.10;;;1.30;;
12745;SDS011;6437;53.686;10.030;2023-06-04T04:44:02;5.85;;;1.48;;
12745;SDS011;6437;53.686;10.030;2023-06-04T04:46:07;12.68;;;1.15;;
12745;SDS011;6437;53.686;10.030;2023-06-04T04:48:10;14.77;;;1.73;;
12745;SDS011;6437;53.686;10.030;2023-06-04T04:50:11;13.43;;;1.20;;
12745;SDS011;6437;53.686;10.030;2023-06-04T04:52:14;2.33;;;1.00;;
12745;SDS011;6437;53.686;10.030;2023-06-04T04:54:15;8.48;;;1.15;;
12745;SDS011;6437;53.686;10.030;2023-06-04T04:56:18;5.20;;;1.15;;
12745;SDS011;6437;53.686;10.030;2023-06-04T04:58:20;4.90;;;1.30;;
12745;SDS011;6437;53.686;10.030;2023-06-04T05:00:22;9.98;;;1.48;;
12745;SDS011;6437;53.686;10.030;2023-06-04T05:02:25;14.88;;;2.22;;
12745;SDS011;6437;53.686;10.030;2023-06-04T05:04:27;14.93;;;2.65;;
12745;SDS011;6437;53.686;10.030;2023-06-04T05:06:30;4.35;;;1.58;;
12745;SDS011;6437;53.686;10.030;2023-06-04T05:08:32;12.00;;;1.52;;
12745;SDS011;6437;53.686;10.030;2023-06-04T05:10:33;14.35;;;1.63;;
12745;SDS011;6437;53.686;10.030;2023-06-04T05:12:37;8.70;;;1.98;;
12745;SDS011;6437;53.686;10.030;2023-06-04T05:14:38;12.50;;;2.72;;
12745;SDS011;6437;53.686;10.030;2023-06-04T05:16:41;10.00;;;1.73;;
12745;SDS011;6437;53.686;10.030;2023-06-04T05:18:45;7.18;;;1.35;;
12745;SDS011;6437;53.686;10.030;2023-06-04T05:20:51;12.00;;;2.08;;
12745;SDS011;6437;53.686;10.030;2023-06-04T05:22:53;9.32;;;1.30;;
12745;SDS011;6437;53.686;10.030;2023-06-04T05:24:57;5.10;;;2.03;;
12745;SDS011;6437;53.686;10.030;2023-06-04T05:26:59;11.80;;;1.45;;
12745;SDS011;6437;53.686;10.030;2023-06-04T05:29:03;13.43;;;2.75;;
12745;SDS011;6437;53.686;10.030;2023-06-04T05:31:05;10.10;;;1.75;;
12745;SDS011;6437;53.686;10.030;2023-06-04T05:33:08;14.63;;;2.17;;
12745;SDS011;6437;53.686;10.030;2023-06-04T05:35:19;11.93;;;2.22;;
12745;SDS011;6437;53.686;10.030;2023-06-04T05:37:21;7.05;;;1.60;;
12745;SDS011;6437;53.686;10.030;2023-06-04T05:39:24;11.32;;;2.25;;
12745;SDS011;6437;53.686;10.030;2023-06-04T05:41:26;8.48;;;1.15;;
12745;SDS011;6437;53.686;10.030;2023-06-04T05:43:28;11.77;;;1.83;;
12745;SDS011;6437;53.686;10.030;2023-06-04T05:45:30;13.43;;;2.03;;
12745;SDS011;6437;53.686;10.030;2023-06-04T05:49:34;9.32;;;1.48;;
12745;SDS011;6437;53.686;10.030;2023-06-04T05:51:38;9.23;;;2.05;;
12745;SDS011;6437;53.686;10.030;2023-06-04T05:53:41;12.40;;;2.75;;
12745;SDS011;6437;53.686;10.030;2023-06-04T05:55:43;8.40;;;1.50;;
12745;SDS011;6437;53.686;10.030;2023-06-04T05:57:45;10.68;;;1.90;;
12745;SDS011;6437;53.686;10.030;2023-06-04T06:01:52;10.13;;;2.25;;
12745;SDS011;6437;53.686;10.030;2023-06-04T06:03:54;13.48;;;1.55;;
12745;SDS011;6437;53.686;10.030;2023-06-04T06:05:56;8.65;;;1.50;;
12745;SDS011;6437;53.686;10.030;2023-06-04T06:08:01;4.95;;;1.75;;
12745;SDS011;6437;53.686;10.030;2023-06-04T06:10:03;9.20;;;1.60;;
12745;SDS011;6437;53.686;10.030;2023-06-04T06:12:06;5.88;;;1.35;;
12745;SDS011;6437;53.686;10.030;2023-06-04T06:14:08;5.70;;;1.65;;
12745;SDS011;6437;53.686;10.030;2023-06-04T06:16:11;11.05;;;2.35;;
12745;SDS011;6437;53.686;10.030;2023-06-04T06:18:13;9.45;;;1.77;;
12745;SDS011;6437;53.686;10.030;2023-06-04T06:20:15;5.88;;;2.03;;
12745;SDS011;6437;53.686;10.030;2023-06-04T06:22:17;6.70;;;1.58;;
12745;SDS011;6437;53.686;10.030;2023-06-04T06:24:21;9.68;;;1.70;;
12745;SDS011;6437;53.686;10.030;2023-06-04T06:26:23;10.82;;;2.03;;
12745;SDS011;6437;53.686;10.030;2023-06-04T06:30:27;3.30;;;1.13;;
12745;SDS011;6437;53.686;10.030;2023-06-04T06:32:29;10.00;;;1.55;;
12745;SDS011;6437;53.686;10.030;2023-06-04T06:34:31;15.07;;;2.33;;
12745;SDS011;6437;53.686;10.030;2023-06-04T06:36:33;8.20;;;1.40;;
12745;SDS011;6437;53.686;10.030;2023-06-04T06:38:35;2.60;;;1.27;;
12745;SDS011;6437;53.686;10.030;2023-06-04T06:40:38;12.32;;;1.50;;
12745;SDS011;6437;53.686;10.030;2023-06-04T06:42:41;5.22;;;1.52;;
12745;SDS011;6437;53.686;10.030;2023-06-04T06:44:43;4.47;;;1.08;;
12745;SDS011;6437;53.686;10.030;2023-06-04T06:46:46;8.27;;;1.80;;
12745;SDS011;6437;53.686;10.030;2023-06-04T06:48:53;4.85;;;1.30;;
12745;SDS011;6437;53.686;10.030;2023-06-04T06:50:55;7.50;;;1.30;;
12745;SDS011;6437;53.686;10.030;2023-06-04T06:52:57;7.13;;;1.88;;
12745;SDS011;6437;53.686;10.030;2023-06-04T06:54:58;3.30;;;1.52;;
12745;SDS011;6437;53.686;10.030;2023-06-04T06:57:01;10.80;;;1.85;;
12745;SDS011;6437;53.686;10.030;2023-06-04T06:59:08;8.52;;;1.52;;
12745;SDS011;6437;53.686;10.030;2023-06-04T07:01:10;5.30;;;1.27;;
12745;SDS011;6437;53.686;10.030;2023-06-04T07:03:12;10.48;;;1.25;;
12745;SDS011;6437;53.686;10.030;2023-06-04T07:05:14;6.30;;;1.60;;
12745;SDS011;6437;53.686;10.030;2023-06-04T07:07:17;9.82;;;1.40;;
12745;SDS011;6437;53.686;10.030;2023-06-04T07:09:20;14.05;;;0.90;;
12745;SDS011;6437;53.686;10.030;2023-06-04T07:11:22;13.75;;;1.67;;
12745;SDS011;6437;53.686;10.030;2023-06-04T07:13:25;5.15;;;0.80;;
12745;SDS011;6437;53.686;10.030;2023-06-04T07:15:27;9.85;;;1.20;;
12745;SDS011;6437;53.686;10.030;2023-06-04T07:17:29;5.80;;;1.95;;
12745;SDS011;6437;53.686;10.030;2023-06-04T07:19:31;7.93;;;2.20;;
12745;SDS011;6437;53.686;10.030;2023-06-04T07:21:34;8.98;;;1.40;;
12745;SDS011;6437;53.686;10.030;2023-06-04T07:23:36;6.68;;;1.63;;
12745;SDS011;6437;53.686;10.030;2023-06-04T07:25:38;8.23;;;1.38;;
12745;SDS011;6437;53.686;10.030;2023-06-04T07:27:39;5.60;;;1.58;;
12745;SDS011;6437;53.686;10.030;2023-06-04T07:29:43;4.68;;;0.98;;
12745;SDS011;6437;53.686;10.030;2023-06-04T07:31:46;4.60;;;1.33;;
12745;SDS011;6437;53.686;10.030;2023-06-04T07:33:48;3.78;;;1.48;;
12745;SDS011;6437;53.686;10.030;2023-06-04T07:35:52;7.80;;;1.42;;
12745;SDS011;6437;53.686;10.030;2023-06-04T07:37:55;5.78;;;1.13;;
12745;SDS011;6437;53.686;10.030;2023-06-04T07:39:56;7.18;;;1.90;;
12745;SDS011;6437;53.686;10.030;2023-06-04T07:41:58;3.25;;;1.65;;
12745;SDS011;6437;53.686;10.030;2023-06-04T07:44:00;10.07;;;1.30;;
12745;SDS011;6437;53.686;10.030;2023-06-04T07:46:03;7.18;;;1.25;;
12745;SDS011;6437;53.686;10.030;2023-06-04T07:48:05;4.00;;;1.27;;
12745;SDS011;6437;53.686;10.030;2023-06-04T07:50:07;7.68;;;2.00;;
12745;SDS011;6437;53.686;10.030;2023-06-04T07:52:09;3.63;;;1.23;;
12745;SDS011;6437;53.686;10.030;2023-06-04T07:56:14;7.72;;;1.40;;
12745;SDS011;6437;53.686;10.030;2023-06-04T08:00:18;5.65;;;1.35;;
12745;SDS011;6437;53.686;10.030;2023-06-04T08:02:21;4.32;;;1.33;;
12745;SDS011;6437;53.686;10.030;2023-06-04T08:04:22;3.33;;;0.95;;
12745;SDS011;6437;53.686;10.030;2023-06-04T08:06:24;4.20;;;1.48;;
12745;SDS011;6437;53.686;10.030;2023-06-04T08:08:26;4.20;;;1.20;;
12745;SDS011;6437;53.686;10.030;2023-06-04T08:10:29;7.55;;;1.38;;
12745;SDS011;6437;53.686;10.030;2023-06-04T08:14:33;5.38;;;1.33;;
12745;SDS011;6437;53.686;10.030;2023-06-04T08:16:35;7.75;;;1.60;;
12745;SDS011;6437;53.686;10.030;2023-06-04T08:18:39;6.38;;;1.77;;
12745;SDS011;6437;53.686;10.030;2023-06-04T08:20:41;5.78;;;1.48;;
12745;SDS011;6437;53.686;10.030;2023-06-04T08:22:43;3.85;;;1.75;;
12745;SDS011;6437;53.686;10.030;2023-06-04T08:24:45;3.70;;;1.20;;
12745;SDS011;6437;53.686;10.030;2023-06-04T08:26:46;4.70;;;1.20;;
12745;SDS011;6437;53.686;10.030;2023-06-04T08:28:48;3.20;;;1.20;;
12745;SDS011;6437;53.686;10.030;2023-06-04T08:30:51;5.38;;;1.70;;
12745;SDS011;6437;53.686;10.030;2023-06-04T08:34:56;4.10;;;1.15;;
12745;SDS011;6437;53.686;10.030;2023-06-04T08:36:58;4.40;;;1.23;;
12745;SDS011;6437;53.686;10.030;2023-06-04T08:39:00;2.83;;;0.60;;
12745;SDS011;6437;53.686;10.030;2023-06-04T08:41:04;11.15;;;1.77;;
12745;SDS011;6437;53.686;10.030;2023-06-04T08:43:11;2.88;;;1.10;;
12745;SDS011;6437;53.686;10.030;2023-06-04T08:45:14;1.15;;;0.60;;
12745;SDS011;6437;53.686;10.030;2023-06-04T08:47:16;7.07;;;1.42;;
12745;SDS011;6437;53.686;10.030;2023-06-04T08:49:20;5.68;;;1.42;;
12745;SDS011;6437;53.686;10.030;2023-06-04T08:51:27;4.82;;;1.08;;
12745;SDS011;6437;53.686;10.030;2023-06-04T08:53:29;2.10;;;1.02;;
12745;SDS011;6437;53.686;10.030;2023-06-04T08:55:32;2.50;;;0.75;;
12745;SDS011;6437;53.686;10.030;2023-06-04T08:57:35;4.20;;;1.05;;
12745;SDS011;6437;53.686;10.030;2023-06-04T08:59:37;5.97;;;1.92;;
12745;SDS011;6437;53.686;10.030;2023-06-04T09:01:39;3.83;;;1.30;;
12745;SDS011;6437;53.686;10.030;2023-06-04T09:03:44;5.88;;;1.58;;
12745;SDS011;6437;53.686;10.030;2023-06-04T09:05:47;1.90;;;1.33;;
12745;SDS011;6437;53.686;10.030;2023-06-04T09:07:53;3.72;;;0.85;;
12745;SDS011;6437;53.686;10.030;2023-06-04T09:10:01;2.83;;;1.30;;
12745;SDS011;6437;53.686;10.030;2023-06-04T09:12:06;3.13;;;1.38;;
12745;SDS011;6437;53.686;10.030;2023-06-04T09:14:11;5.03;;;1.45;;
12745;SDS011;6437;53.686;10.030;2023-06-04T09:16:17;6.60;;;1.40;;
12745;SDS011;6437;53.686;10.030;2023-06-04T09:18:19;1.40;;;1.30;;
12745;SDS011;6437;53.686;10.030;2023-06-04T09:20:20;5.75;;;1.92;;
12745;SDS011;6437;53.686;10.030;2023-06-04T09:22:31;2.17;;;1.48;;
12745;SDS011;6437;53.686;10.030;2023-06-04T09:24:41;3.67;;;1.60;;
12745;SDS011;6437;53.686;10.030;2023-06-04T09:26:46;9.82;;;1.52;;
12745;SDS011;6437;53.686;10.030;2023-06-04T09:28:49;9.25;;;1.48;;
12745;SDS011;6437;53.686;10.030;2023-06-04T09:30:53;9.82;;;1.27;;
12745;SDS011;6437;53.686;10.030;2023-06-04T09:33:05;6.00;;;1.60;;
12745;SDS011;6437;53.686;10.030;2023-06-04T09:35:08;4.63;;;2.13;;
12745;SDS011;6437;53.686;10.030;2023-06-04T09:37:13;5.82;;;1.60;;
12745;SDS011;6437;53.686;10.030;2023-06-04T09:39:16;2.40;;;1.20;;
12745;SDS011;6437;53.686;10.030;2023-06-04T09:43:22;2.22;;;1.13;;
12745;SDS011;6437;53.686;10.030;2023-06-04T09:45:27;2.92;;;1.10;;
12745;SDS011;6437;53.686;10.030;2023-06-04T09:47:38;5.35;;;1.40;;
12745;SDS011;6437;53.686;10.030;2023-06-04T09:49:41;1.70;;;1.50;;
12745;SDS011;6437;53.686;10.030;2023-06-04T09:51:46;3.42;;;2.28;;
12745;SDS011;6437;53.686;10.030;2023-06-04T09:53:55;9.73;;;1.67;;
12745;SDS011;6437;53.686;10.030;2023-06-04T09:55:58;7.10;;;1.63;;
12745;SDS011;6437;53.686;10.030;2023-06-04T09:58:04;8.77;;;1.73;;
12745;SDS011;6437;53.686;10.030;2023-06-04T10:00:08;4.53;;;1.30;;
12745;SDS011;6437;53.686;10.030;2023-06-04T10:02:11;5.00;;;1.75;;
12745;SDS011;6437;53.686;10.030;2023-06-04T10:04:14;4.97;;;1.35;;
12745;SDS011;6437;53.686;10.030;2023-06-04T10:06:16;2.55;;;1.52;;
12745;SDS011;6437;53.686;10.030;2023-06-04T10:08:21;4.82;;;2.25;;
12745;SDS011;6437;53.686;10.030;2023-06-04T10:10:25;1.90;;;1.73;;
12745;SDS011;6437;53.686;10.030;2023-06-04T10:12:29;7.82;;;1.35;;
12745;SDS011;6437;53.686;10.030;2023-06-04T10:14:38;7.00;;;2.05;;
12745;SDS011;6437;53.686;10.030;2023-06-04T10:16:42;2.70;;;1.20;;
12745;SDS011;6437;53.686;10.030;2023-06-04T10:18:45;4.68;;;1.83;;
12745;SDS011;6437;53.686;10.030;2023-06-04T10:20:49;3.75;;;1.33;;
12745;SDS011;6437;53.686;10.030;2023-06-04T10:22:55;5.55;;;1.38;;
12745;SDS011;6437;53.686;10.030;2023-06-04T10:24:59;4.78;;;1.65;;
12745;SDS011;6437;53.686;10.030;2023-06-04T10:29:10;7.35;;;1.00;;
12745;SDS011;6437;53.686;10.030;2023-06-04T10:31:15;3.90;;;1.80;;
12745;SDS011;6437;53.686;10.030;2023-06-04T10:33:17;3.10;;;1.60;;
12745;SDS011;6437;53.686;10.030;2023-06-04T10:35:30;4.53;;;1.65;;
12745;SDS011;6437;53.686;10.030;2023-06-04T10:37:33;2.35;;;1.40;;
12745;SDS011;6437;53.686;10.030;2023-06-04T10:41:37;3.83;;;1.52;;
12745;SDS011;6437;53.686;10.030;2023-06-04T10:43:40;2.30;;;1.60;;
12745;SDS011;6437;53.686;10.030;2023-06-04T10:45:42;4.10;;;1.77;;
12745;SDS011;6437;53.686;10.030;2023-06-04T10:47:47;5.05;;;1.75;;
12745;SDS011;6437;53.686;10.030;2023-06-04T10:50:06;3.95;;;1.10;;
12745;SDS011;6437;53.686;10.030;2023-06-04T10:52:10;3.58;;;1.75;;
12745;SDS011;6437;53.686;10.030;2023-06-04T10:54:21;4.93;;;1.45;;
12745;SDS011;6437;53.686;10.030;2023-06-04T10:58:31;3.72;;;1.40;;
12745;SDS011;6437;53.686;10.030;2023-06-04T11:00:36;3.22;;;1.92;;
12745;SDS011;6437;53.686;10.030;2023-06-04T11:02:50;2.15;;;1.52;;
12745;SDS011;6437;53.686;10.030;2023-06-04T11:04:59;2.42;;;1.52;;
12745;SDS011;6437;53.686;10.030;2023-06-04T11:07:07;2.38;;;1.38;;
12745;SDS011;6437;53.686;10.030;2023-06-04T11:09:09;3.22;;;1.30;;
12745;SDS011;6437;53.686;10.030;2023-06-04T11:11:16;4.20;;;1.75;;
12745;SDS011;6437;53.686;10.030;2023-06-04T11:13:22;5.88;;;3.05;;
12745;SDS011;6437;53.686;10.030;2023-06-04T11:15:24;13.48;;;4.78;;
12745;SDS011;6437;53.686;10.030;2023-06-04T11:17:26;8.88;;;3.45;;
12745;SDS011;6437;53.686;10.030;2023-06-04T11:19:36;11.07;;;5.70;;
12745;SDS011;6437;53.686;10.030;2023-06-04T11:21:38;15.65;;;3.80;;
12745;SDS011;6437;53.686;10.030;2023-06-04T11:27:45;14.43;;;3.92;;
12745;SDS011;6437;53.686;10.030;2023-06-04T11:29:48;4.30;;;1.98;;
12745;SDS011;6437;53.686;10.030;2023-06-04T11:31:52;3.78;;;2.25;;
12745;SDS011;6437;53.686;10.030;2023-06-04T11:33:56;4.68;;;2.25;;
12745;SDS011;6437;53.686;10.030;2023-06-04T11:38:01;3.15;;;1.88;;
12745;SDS011;6437;53.686;10.030;2023-06-04T11:40:03;4.13;;;2.22;;
12745;SDS011;6437;53.686;10.030;2023-06-04T11:42:16;6.72;;;2.65;;
12745;SDS011;6437;53.686;10.030;2023-06-04T11:44:19;5.32;;;3.17;;
12745;SDS011;6437;53.686;10.030;2023-06-04T11:46:21;5.43;;;2.72;;
12745;SDS011;6437;53.686;10.030;2023-06-04T11:48:23;4.00;;;2.58;;
12745;SDS011;6437;53.686;10.030;2023-06-04T11:50:26;3.03;;;2.20;;
12745;SDS011;6437;53.686;10.030;2023-06-04T11:52:30;2.03;;;1.75;;
12745;SDS011;6437;53.686;10.030;2023-06-04T11:54:34;1.67;;;1.58;;
12745;SDS011;6437;53.686;10.030;2023-06-04T11:56:38;3.42;;;2.22;;
12745;SDS011;6437;53.686;10.030;2023-06-04T11:58:40;3.38;;;1.98;;
12745;SDS011;6437;53.686;10.030;2023-06-04T12:00:43;7.53;;;2.20;;
12745;SDS011;6437;53.686;10.030;2023-06-04T12:04:52;9.02;;;2.33;;
12745;SDS011;6437;53.686;10.030;2023-06-04T12:06:56;5.30;;;2.00;;
12745;SDS011;6437;53.686;10.030;2023-06-04T12:09:01;2.35;;;2.15;;
12745;SDS011;6437;53.686;10.030;2023-06-04T12:11:04;9.52;;;2.85;;
12745;SDS011;6437;53.686;10.030;2023-06-04T12:15:09;7.68;;;2.30;;
12745;SDS011;6437;53.686;10.030;2023-06-04T12:17:11;7.63;;;2.38;;
12745;SDS011;6437;53.686;10.030;2023-06-04T12:19:13;2.08;;;1.77;;
12745;SDS011;6437;53.686;10.030;2023-06-04T12:21:20;3.63;;;2.65;;
12745;SDS011;6437;53.686;10.030;2023-06-04T12:23:26;3.50;;;2.17;;
12745;SDS011;6437;53.686;10.030;2023-06-04T12:25:29;4.90;;;1.75;;
12745;SDS011;6437;53.686;10.030;2023-06-04T12:27:32;4.63;;;2.80;;
12745;SDS011;6437;53.686;10.030;2023-06-04T12:31:35;3.83;;;1.97;;
12745;SDS011;6437;53.686;10.030;2023-06-04T12:33:37;3.45;;;2.60;;
12745;SDS011;6437;53.686;10.030;2023-06-04T12:35:42;3.17;;;2.33;;
12745;SDS011;6437;53.686;10.030;2023-06-04T12:37:45;2.97;;;2.05;;
12745;SDS011;6437;53.686;10.030;2023-06-04T12:39:47;5.25;;;2.10;;
12745;SDS011;6437;53.686;10.030;2023-06-04T12:41:50;1.95;;;1.85;;
12745;SDS011;6437;53.686;10.030;2023-06-04T12:43:55;2.22;;;1.98;;
12745;SDS011;6437;53.686;10.030;2023-06-04T12:45:58;2.00;;;1.83;;
12745;SDS011;6437;53.686;10.030;2023-06-04T12:48:00;3.90;;;2.10;;
12745;SDS011;6437;53.686;10.030;2023-06-04T12:50:04;3.70;;;2.63;;
12745;SDS011;6437;53.686;10.030;2023-06-04T12:52:07;3.97;;;1.83;;
12745;SDS011;6437;53.686;10.030;2023-06-04T12:54:08;7.30;;;1.83;;
12745;SDS011;6437;53.686;10.030;2023-06-04T12:56:11;6.03;;;2.22;;
12745;SDS011;6437;53.686;10.030;2023-06-04T12:58:15;3.97;;;2.03;;
12745;SDS011;6437;53.686;10.030;2023-06-04T13:00:17;9.02;;;2.30;;
12745;SDS011;6437;53.686;10.030;2023-06-04T13:02:19;2.38;;;1.95;;
12745;SDS011;6437;53.686;10.030;2023-06-04T13:04:20;7.22;;;2.33;;
12745;SDS011;6437;53.686;10.030;2023-06-04T13:06:23;4.00;;;2.38;;